map of NAA home
NAA - Airport
Location
City:  Narrabri, New South Wales, Australia
ICAO:YNBR
IATA:NAA

Details
Type:Airport (Aerodrome, Airfield)
Latitude:3019'09"S (-30.319166)
Longitude:14949'38"E (149.827222)
Datum:WGS 1984
Elevation:788 ft (240 m)
Variation:10.88E (WMM2015v2 magnetic declination)
-0.00 annual change
Runways:2
Longest:5000 × 98 ft (1524 × 30 m), paved

Time
Time Zone:UTC+10 (DST+11)
Local Time:

Weather
METAR:YNBR 041400Z AUTO 03012KT 9999 // NCD 30/09 Q1010

Related Locations
Nearby:
Farthest:SMA: 11892 mi / 19139 km
Santa Maria, 20, PT

Find:

   beyond  
but within

Other Information
Maps:
NOTAMs:
Links:
Sources:

  
  • flag of Australia
  • flag of New South Wales
  

Sectional Chart

Flight Planning
at skyvector.com

Satellite Image

Google Maps Satellite view

 

Copyright © 2004-2019 Karl L. Swartz. All rights reserved.
The Great Circle Mapper name and logo are trademarks of the Great Circle Mapper.
All other trademarks mentioned herein belong to their respective owners.
Please see credits for attibutions and further copyright information.

  Follow gcmap on Facebook Follow gcmap on Twitter GCmap on LinkedIn

hCard Microformat

Geo Microformat